Time;durP1;ratioP1;P1;durP2;ratioP2;P2;SDS_P1;SDS_P2;PMS_P1;PMS_P2;Temp;Humidity;BMP_temperature;BMP_pressure;BME280_temperature;BME280_humidity;BME280_pressure;Samples;Min_cycle;Max_cycle;Signal;HPM_P1;HPM_P2
2021/01/28 00:00:31;;;;;;;5.43;4.93;;;;;;;3.99;97.44;96073.97;5012437;28;20914;-65
2021/01/28 00:02:57;;;;;;;6.17;5.63;;;;;;;4.03;96.86;96074.38;5012387;28;20430;-66
2021/01/28 00:05:23;;;;;;;6.93;5.90;;;;;;;4.24;96.88;96061.28;5013950;28;20472;-66
2021/01/28 00:07:49;;;;;;;5.60;4.47;;;;;;;4.23;96.72;96064.91;5014104;28;20402;-66
2021/01/28 00:10:16;;;;;;;5.57;5.07;;;;;;;4.24;96.13;96066.47;5013202;28;20427;-66
2021/01/28 00:12:42;;;;;;;5.50;5.00;;;;;;;4.40;95.75;96063.56;5012923;28;20184;-63
2021/01/28 00:15:08;;;;;;;5.03;4.60;;;;;;;4.39;95.60;96067.16;5013376;28;20435;-64
2021/01/28 00:17:34;;;;;;;6.10;4.73;;;;;;;4.35;95.45;96060.72;5013944;28;20250;-63
2021/01/28 00:20:00;;;;;;;5.53;4.93;;;;;;;4.40;94.57;96054.97;5012687;28;20498;-66
2021/01/28 00:22:25;;;;;;;6.93;5.00;;;;;;;4.52;94.06;96056.81;5012453;28;20917;-66
2021/01/28 00:24:50;;;;;;;5.00;4.50;;;;;;;4.30;94.91;96055.31;5011806;28;20198;-67
2021/01/28 00:27:16;;;;;;;4.77;4.27;;;;;;;4.30;95.61;96049.31;5013088;28;20532;-67
2021/01/28 00:29:41;;;;;;;4.87;4.43;;;;;;;4.22;96.31;96052.91;5013000;28;20187;-66
2021/01/28 00:32:07;;;;;;;4.93;4.33;;;;;;;4.24;96.53;96053.50;5013127;28;20587;-67
2021/01/28 00:34:32;;;;;;;6.23;5.00;;;;;;;4.22;95.88;96046.91;5012939;28;20211;-66
2021/01/28 00:36:58;;;;;;;5.07;4.57;;;;;;;4.28;96.13;96048.69;5013674;28;20287;-64
2021/01/28 00:39:24;;;;;;;7.20;4.50;;;;;;;4.11;96.97;96049.03;5012539;28;20504;-63
2021/01/28 00:41:49;;;;;;;4.50;4.10;;;;;;;3.91;97.80;96052.53;5012579;28;20435;-63
2021/01/28 00:44:14;;;;;;;5.43;4.37;;;;;;;3.92;98.14;96041.97;5013000;28;20231;-66
2021/01/28 00:46:40;;;;;;;4.20;3.80;;;;;;;4.06;97.47;96040.22;5013127;28;20654;-64
2021/01/28 00:49:05;;;;;;;4.53;4.13;;;;;;;4.03;97.62;96036.22;5000482;28;20697;-64
2021/01/28 00:51:31;;;;;;;4.40;4.00;;;;;;;4.10;97.17;96031.03;5012938;28;20205;-67
2021/01/28 00:53:56;;;;;;;4.60;4.20;;;;;;;4.07;97.56;96024.44;4998904;28;20201;-67
2021/01/28 00:56:22;;;;;;;4.73;4.33;;;;;;;3.96;97.86;96025.00;5013011;28;20183;-65
2021/01/28 00:58:49;;;;;;;4.70;4.20;;;;;;;4.00;97.67;96033.22;5013372;28;20295;-66
2021/01/28 01:01:14;;;;;;;4.80;4.30;;;;;;;3.92;98.35;96025.56;5011102;28;20190;-64
2021/01/28 01:03:40;;;;;;;5.03;4.13;;;;;;;3.81;98.46;96018.31;5013158;28;20418;-64
2021/01/28 01:06:05;;;;;;;5.30;4.17;;;;;;;3.72;99.68;96012.47;5013125;28;20567;-63
2021/01/28 01:08:32;;;;;;;5.83;3.93;;;;;;;3.58;100.00;96013.41;4995373;28;20183;-64
2021/01/28 01:11:09;;;;;;;4.33;3.90;;;;;;;3.72;99.39;96003.88;5006888;28;20178;-66
2021/01/28 01:13:37;;;;;;;5.33;4.83;;;;;;;3.70;99.95;96004.06;4993293;28;20410;-66
2021/01/28 01:16:07;;;;;;;4.27;3.87;;;;;;;3.58;100.00;96005.59;5006080;28;20531;-64
2021/01/28 01:18:34;;;;;;;4.10;3.70;;;;;;;3.62;100.00;96009.44;5011824;28;20467;-66
2021/01/28 01:21:01;;;;;;;4.60;4.20;;;;;;;3.67;99.96;96008.84;5013702;28;20443;-64
2021/01/28 01:23:27;;;;;;;7.50;4.30;;;;;;;3.80;100.00;95999.34;5016254;28;20458;-67
2021/01/28 01:25:52;;;;;;;5.00;4.50;;;;;;;3.69;100.00;96005.06;5015245;28;20630;-64
2021/01/28 01:28:18;;;;;;;5.67;3.67;;;;;;;3.74;100.00;96013.09;5017024;28;20170;-66
2021/01/28 01:30:44;;;;;;;4.77;4.37;;;;;;;3.75;99.67;96009.47;5017325;28;20193;-66
2021/01/28 01:33:09;;;;;;;5.87;5.10;;;;;;;3.72;100.00;96015.06;5016266;28;20186;-66
2021/01/28 01:35:35;;;;;;;5.43;4.53;;;;;;;3.59;100.00;96006.38;5016501;28;20211;-66
2021/01/28 01:38:01;;;;;;;5.77;5.30;;;;;;;3.64;100.00;96007.41;5016562;28;20220;-64
2021/01/28 01:40:31;;;;;;;5.70;4.07;;;;;;;3.61;100.00;96007.00;5010686;28;20584;-65
2021/01/28 01:42:57;;;;;;;5.07;4.60;;;;;;;3.61;100.00;96002.63;5015517;28;20428;-66
2021/01/28 01:45:35;;;;;;;4.53;4.13;;;;;;;3.75;100.00;95995.72;5016625;28;20443;-66
2021/01/28 01:48:07;;;;;;;4.83;3.80;;;;;;;3.88;99.63;96001.75;5016875;28;20396;-65
2021/01/28 01:50:40;;;;;;;4.63;4.13;;;;;;;3.94;99.08;95995.00;5016697;28;20419;-65
2021/01/28 01:53:12;;;;;;;4.83;4.33;;;;;;;3.85;99.35;95985.75;5015996;28;20426;-65
2021/01/28 01:55:39;;;;;;;4.60;4.10;;;;;;;4.00;98.97;95978.63;5016355;28;20425;-67
2021/01/28 01:58:07;;;;;;;5.13;4.63;;;;;;;3.79;99.69;95976.94;5015676;28;20582;-65
2021/01/28 02:00:33;;;;;;;5.13;4.57;;;;;;;3.81;99.59;95967.16;5015648;28;20421;-66
2021/01/28 02:03:05;;;;;;;6.50;5.30;;;;;;;3.82;99.73;95960.16;5015157;28;20499;-67
2021/01/28 02:05:35;;;;;;;6.33;4.60;;;;;;;3.63;100.00;95951.28;5015881;28;20198;-64
2021/01/28 02:08:03;;;;;;;4.50;4.00;;;;;;;3.82;99.89;95944.59;5015993;28;20422;-66
2021/01/28 02:10:29;;;;;;;5.13;4.63;;;;;;;3.69;100.00;95947.13;5016157;28;20417;-66
2021/01/28 02:12:54;;;;;;;4.63;4.23;;;;;;;3.70;100.00;95940.91;5011855;28;20438;-64
2021/01/28 02:15:23;;;;;;;7.60;4.33;;;;;;;3.74;100.00;95942.94;5015769;28;20693;-65
2021/01/28 02:17:52;;;;;;;5.13;4.63;;;;;;;3.83;100.00;95931.41;5002839;28;20204;-66
2021/01/28 02:20:33;;;;;;;4.20;3.80;;;;;;;3.74;100.00;95936.94;5011868;28;20425;-66
2021/01/28 02:23:07;;;;;;;4.70;3.73;;;;;;;3.60;100.00;95937.88;5015952;28;20409;-66
2021/01/28 02:25:36;;;;;;;4.83;4.43;;;;;;;3.67;100.00;95929.13;5015357;28;20808;-66
2021/01/28 02:28:08;;;;;;;4.70;3.13;;;;;;;3.72;100.00;95925.94;5015521;28;20895;-66
2021/01/28 02:30:36;;;;;;;3.60;3.30;;;;;;;3.77;100.00;95918.38;5013433;28;20432;-66
2021/01/28 02:33:03;;;;;;;4.50;3.80;;;;;;;4.04;99.34;95915.66;4999775;28;20468;-64
2021/01/28 02:35:30;;;;;;;3.30;3.03;;;;;;;3.81;100.00;95915.19;5004927;28;20458;-64
2021/01/28 02:37:59;;;;;;;3.20;2.90;;;;;;;4.00;99.68;95911.06;5015342;28;20465;-63
2021/01/28 02:40:27;;;;;;;3.47;3.17;;;;;;;4.13;99.39;95903.31;5015419;28;20497;-66
2021/01/28 02:42:53;;;;;;;3.90;3.50;;;;;;;3.84;100.00;95904.41;5014681;28;20426;-64
2021/01/28 02:45:26;;;;;;;3.27;2.97;;;;;;;3.97;99.99;95898.44;5015133;28;20490;-64
2021/01/28 02:47:54;;;;;;;3.93;3.53;;;;;;;3.95;100.00;95893.44;5013974;28;20174;-66
2021/01/28 02:50:20;;;;;;;3.37;3.10;;;;;;;3.91;100.00;95894.84;5015546;28;20419;-64
2021/01/28 02:52:45;;;;;;;3.53;3.23;;;;;;;3.95;100.00;95897.88;5013755;28;20423;-67
2021/01/28 02:55:11;;;;;;;4.40;2.87;;;;;;;3.88;100.00;95895.22;5009063;28;20441;-66
2021/01/28 02:57:36;;;;;;;3.20;2.90;;;;;;;3.91;100.00;95899.25;5015248;28;20236;-65
2021/01/28 03:00:10;;;;;;;3.90;3.50;;;;;;;3.94;100.00;95889.25;5015480;28;20413;-65
2021/01/28 03:02:35;;;;;;;2.80;2.50;;;;;;;3.98;100.00;95890.47;5015210;28;20174;-66
2021/01/28 03:05:01;;;;;;;3.67;3.20;;;;;;;4.22;100.00;95882.09;5014650;28;20488;-64
2021/01/28 03:07:26;;;;;;;4.80;3.67;;;;;;;4.22;99.92;95876.91;5014491;28;20656;-66
2021/01/28 03:09:51;;;;;;;3.33;3.03;;;;;;;4.09;100.00;95866.47;5014543;28;20187;-65
2021/01/28 03:12:17;;;;;;;3.93;3.37;;;;;;;4.13;100.00;95870.31;5014441;28;20179;-65
2021/01/28 03:14:42;;;;;;;3.20;2.90;;;;;;;4.11;100.00;95869.69;5013987;28;20690;-66
2021/01/28 03:17:07;;;;;;;2.70;2.50;;;;;;;4.05;100.00;95862.72;5014899;28;20252;-64
2021/01/28 03:19:33;;;;;;;3.27;2.97;;;;;;;4.26;99.63;95856.50;5014922;28;20543;-65
2021/01/28 03:21:58;;;;;;;3.50;2.67;;;;;;;4.11;100.00;95850.72;5013258;28;20237;-66
2021/01/28 03:24:24;;;;;;;3.80;3.40;;;;;;;4.19;100.00;95858.31;5007582;28;20278;-65
2021/01/28 03:26:50;;;;;;;4.27;3.40;;;;;;;4.24;100.00;95855.13;5011729;28;20181;-65
2021/01/28 03:29:15;;;;;;;3.63;3.30;;;;;;;4.22;99.90;95842.34;4995168;28;20421;-66
2021/01/28 03:31:41;;;;;;;3.67;3.33;;;;;;;4.16;100.00;95838.72;5000091;28;20662;-66
2021/01/28 03:34:08;;;;;;;3.37;3.07;;;;;;;3.99;100.00;95849.69;5014266;28;20189;-65
2021/01/28 03:36:33;;;;;;;3.60;3.30;;;;;;;3.94;100.00;95850.28;5013734;28;20465;-67
2021/01/28 03:38:59;;;;;;;4.53;3.50;;;;;;;3.94;100.00;95855.50;5014512;28;20901;-65
2021/01/28 03:41:24;;;;;;;3.53;3.20;;;;;;;4.02;100.00;95857.88;5014147;28;20583;-66
2021/01/28 03:43:50;;;;;;;3.13;2.83;;;;;;;4.05;100.00;95841.91;5000529;28;20202;-65
2021/01/28 03:46:16;;;;;;;3.30;3.00;;;;;;;4.26;100.00;95837.53;5014334;28;20427;-66
2021/01/28 03:48:41;;;;;;;3.97;2.90;;;;;;;4.39;100.00;95824.50;5014282;28;20182;-65
2021/01/28 03:51:07;;;;;;;3.63;3.27;;;;;;;4.02;100.00;95811.09;5014195;28;20237;-65
2021/01/28 03:53:33;;;;;;;4.23;3.00;;;;;;;4.32;100.00;95798.53;5013987;28;20195;-66
2021/01/28 03:55:58;;;;;;;4.40;3.47;;;;;;;4.37;100.00;95785.72;5012831;28;20436;-67
2021/01/28 03:58:24;;;;;;;4.00;3.60;;;;;;;4.51;100.00;95776.13;5012158;28;20673;-64
2021/01/28 04:00:49;;;;;;;3.97;3.57;;;;;;;4.49;100.00;95778.13;5013960;28;20222;-65
2021/01/28 04:03:15;;;;;;;4.37;3.93;;;;;;;4.64;100.00;95778.72;5013612;28;20243;-65
2021/01/28 04:05:40;;;;;;;6.90;4.67;;;;;;;4.62;100.00;95768.47;5014214;28;20225;-66
2021/01/28 04:08:06;;;;;;;6.53;4.47;;;;;;;4.76;100.00;95764.06;5014112;28;20173;-66
2021/01/28 04:10:34;;;;;;;5.53;4.33;;;;;;;4.92;100.00;95755.81;4996219;28;20330;-65
2021/01/28 04:13:01;;;;;;;7.87;5.50;;;;;;;4.68;100.00;95759.88;4994126;28;20183;-65
2021/01/28 04:15:26;;;;;;;5.93;5.23;;;;;;;4.90;100.00;95747.41;5003538;28;20454;-67
2021/01/28 04:17:52;;;;;;;7.80;5.80;;;;;;;5.04;98.75;95728.13;5013985;28;20779;-65
2021/01/28 04:20:21;;;;;;;6.13;4.93;;;;;;;4.96;99.44;95729.13;5014109;28;20181;-65
2021/01/28 04:22:47;;;;;;;5.97;4.70;;;;;;;4.98;99.65;95721.94;5013369;28;20424;-71
2021/01/28 04:25:14;;;;;;;8.80;5.30;;;;;;;4.83;98.55;95712.78;5010592;28;20468;-65
2021/01/28 04:27:40;;;;;;;7.20;5.80;;;;;;;4.69;99.74;95704.22;5013890;28;20179;-66
2021/01/28 04:30:08;;;;;;;8.13;6.03;;;;;;;4.53;100.00;95711.69;5014685;28;20430;-65
2021/01/28 04:32:34;;;;;;;7.00;5.57;;;;;;;4.60;98.92;95708.06;5015448;28;20173;-64
2021/01/28 04:34:59;;;;;;;8.33;5.67;;;;;;;4.69;99.23;95693.03;5031238;28;20445;-64
2021/01/28 04:37:25;;;;;;;8.03;6.00;;;;;;;4.58;98.49;95693.69;5013623;28;20211;-64
2021/01/28 04:39:51;;;;;;;8.40;6.37;;;;;;;4.49;99.43;95687.09;5005768;28;20175;-66
2021/01/28 04:42:20;;;;;;;6.33;5.17;;;;;;;4.45;99.21;95673.72;4995172;28;20180;-65
2021/01/28 04:44:47;;;;;;;8.17;5.40;;;;;;;4.38;100.00;95677.31;4993532;28;20514;-66
2021/01/28 04:47:18;;;;;;;8.23;7.43;;;;;;;4.55;99.36;95673.28;5006464;28;20906;-65
2021/01/28 04:49:54;;;;;;;8.20;6.37;;;;;;;4.43;99.19;95664.50;5013793;28;20818;-67
2021/01/28 04:52:21;;;;;;;7.53;5.63;;;;;;;4.36;100.00;95666.31;5013888;28;20425;-67
2021/01/28 04:54:47;;;;;;;7.87;5.80;;;;;;;4.53;99.78;95662.28;5013638;28;20501;-66
2021/01/28 04:57:13;;;;;;;6.33;5.50;;;;;;;4.44;99.57;95668.72;5007182;28;20531;-67
2021/01/28 04:59:44;;;;;;;8.03;5.80;;;;;;;4.52;99.59;95664.06;5017108;28;20426;-67
2021/01/28 05:02:18;;;;;;;8.47;5.30;;;;;;;4.69;98.73;95660.00;5017708;28;20258;-67
2021/01/28 05:04:48;;;;;;;7.60;5.90;;;;;;;4.70;98.55;95647.78;5016639;28;20519;-66
2021/01/28 05:07:22;;;;;;;6.50;5.63;;;;;;;4.67;98.64;95635.22;5017423;28;20939;-67
2021/01/28 05:10:34;;;;;;;7.37;5.20;;;;;;;4.80;97.46;95622.94;5017529;28;20502;-65
2021/01/28 05:13:00;;;;;;;5.47;4.87;;;;;;;4.64;98.01;95618.22;5012717;28;20423;-67
2021/01/28 05:15:35;;;;;;;5.63;5.00;;;;;;;4.89;97.93;95613.09;4997673;28;20781;-67
2021/01/28 05:18:10;;;;;;;6.70;4.80;;;;;;;4.97;97.82;95599.81;4997776;28;20621;-67
2021/01/28 05:20:36;;;;;;;5.77;5.10;;;;;;;5.29;95.35;95605.84;5003789;28;20513;-65
2021/01/28 05:23:11;;;;;;;6.63;5.40;;;;;;;5.15;95.29;95597.28;5016946;28;20461;-66
2021/01/28 05:25:41;;;;;;;5.23;4.70;;;;;;;5.12;94.99;95595.13;5017066;28;20430;-65
2021/01/28 05:28:36;;;;;;;6.90;4.80;;;;;;;4.96;96.35;95591.22;5016427;28;20418;-65
2021/01/28 05:31:01;;;;;;;6.50;4.63;;;;;;;4.87;96.62;95592.47;5017118;28;20438;-64
2021/01/28 05:33:29;;;;;;;7.83;4.30;;;;;;;5.10;95.94;95584.94;5016711;28;20447;-66
2021/01/28 05:36:17;;;;;;;5.27;4.60;;;;;;;4.90;97.28;95579.06;5016244;28;20587;-66
2021/01/28 05:38:52;;;;;;;5.23;4.47;;;;;;;5.01;96.85;95582.78;5016829;28;20561;-64
2021/01/28 05:41:37;;;;;;;6.97;5.20;;;;;;;5.10;95.99;95571.91;5016906;28;20406;-65
2021/01/28 05:44:20;;;;;;;5.97;4.17;;;;;;;4.95;96.75;95575.81;4999311;28;20457;-66
2021/01/28 05:47:09;;;;;;;4.87;4.23;;;;;;;4.99;97.02;95562.19;4997193;28;20411;-64
2021/01/28 05:49:42;;;;;;;5.57;4.03;;;;;;;4.80;98.04;95557.09;5010962;28;20768;-64
2021/01/28 05:52:19;;;;;;;6.23;4.37;;;;;;;4.79;98.67;95560.69;5016679;28;20407;-65
2021/01/28 05:55:11;;;;;;;4.53;3.50;;;;;;;4.75;99.54;95556.91;5015683;28;20443;-66
2021/01/28 05:58:02;;;;;;;4.40;3.90;;;;;;;4.68;99.25;95549.16;5008701;28;20941;-66
2021/01/28 06:00:41;;;;;;;4.70;3.60;;;;;;;4.67;100.00;95544.97;4993969;28;20799;-65
2021/01/28 06:03:12;;;;;;;4.63;4.00;;;;;;;4.77;99.64;95536.69;4996596;28;20430;-66
2021/01/28 06:06:15;;;;;;;4.40;3.80;;;;;;;4.62;100.00;95544.78;4996754;28;20972;-65
2021/01/28 06:09:05;;;;;;;4.43;3.37;;;;;;;4.47;100.00;95540.88;4996564;28;20403;-65
2021/01/28 06:11:57;;;;;;;7.30;3.83;;;;;;;4.60;100.00;95531.19;5002539;28;20407;-66
2021/01/28 06:14:49;;;;;;;4.23;3.67;;;;;;;4.55;100.00;95522.44;4996231;28;20538;-66
2021/01/28 06:17:59;;;;;;;4.40;3.60;;;;;;;4.62;100.00;95508.38;5000852;28;20836;-67
2021/01/28 06:20:30;;;;;;;6.03;4.20;;;;;;;4.62;100.00;95508.38;5016093;28;20798;-65
2021/01/28 06:23:25;;;;;;;6.13;4.10;;;;;;;4.57;100.00;95508.19;5015800;28;20413;-67
2021/01/28 06:26:25;;;;;;;4.13;3.73;;;;;;;4.48;100.00;95499.06;5015916;28;20457;-66
2021/01/28 06:29:29;;;;;;;4.20;3.30;;;;;;;4.65;100.00;95478.53;5011544;28;20529;-66
2021/01/28 06:32:17;;;;;;;4.60;2.90;;;;;;;4.65;100.00;95471.56;4938407;28;20434;-64
2021/01/28 06:35:05;;;;;;;3.90;3.50;;;;;;;4.69;100.00;95479.72;5015443;28;20843;-64
2021/01/28 06:37:58;;;;;;;3.83;3.33;;;;;;;4.65;100.00;95468.13;5015666;28;20556;-64
2021/01/28 06:40:30;;;;;;;4.97;4.47;;;;;;;4.64;100.00;95463.97;5015617;28;20761;-66
2021/01/28 06:43:04;;;;;;;4.90;4.17;;;;;;;4.59;100.00;95466.38;5015440;28;20502;-67
2021/01/28 06:45:46;;;;;;;5.93;4.50;;;;;;;4.50;100.00;95454.63;5015383;28;20448;-67
2021/01/28 06:48:24;;;;;;;4.97;4.03;;;;;;;4.54;100.00;95461.00;5013727;28;20451;-64
2021/01/28 06:51:24;;;;;;;6.20;5.23;;;;;;;4.59;100.00;95451.56;5002023;28;20470;-67
2021/01/28 06:53:58;;;;;;;8.63;4.83;;;;;;;4.51;100.00;95444.00;4995375;28;20426;-66
2021/01/28 06:56:34;;;;;;;8.10;5.20;;;;;;;4.56;100.00;95438.19;4996016;28;20443;-66
2021/01/28 06:59:18;;;;;;;6.90;5.37;;;;;;;4.46;100.00;95436.06;4998031;28;20411;-65
2021/01/28 07:01:52;;;;;;;5.63;4.90;;;;;;;4.36;100.00;95440.13;5015268;28;20486;-66
2021/01/28 07:04:28;;;;;;;6.80;5.70;;;;;;;4.50;100.00;95434.63;5014403;28;20474;-65
2021/01/28 07:07:03;;;;;;;6.83;5.20;;;;;;;4.43;100.00;95439.09;5015390;28;20399;-66
2021/01/28 07:09:41;;;;;;;7.53;4.73;;;;;;;4.60;100.00;95441.97;5013705;28;20410;-66
2021/01/28 07:12:09;;;;;;;6.33;5.20;;;;;;;4.56;100.00;95436.41;5015002;28;20425;-67
2021/01/28 07:14:34;;;;;;;6.70;5.70;;;;;;;4.44;100.00;95435.47;5013858;28;20444;-64
2021/01/28 07:17:15;;;;;;;5.80;5.20;;;;;;;4.65;100.00;95431.72;5015001;28;20526;-66
2021/01/28 07:19:49;;;;;;;10.30;5.60;;;;;;;4.64;100.00;95430.91;5014754;28;20192;-65
2021/01/28 07:22:18;;;;;;;6.40;5.07;;;;;;;4.56;100.00;95415.59;5013378;28;20430;-64
2021/01/28 07:24:44;;;;;;;6.50;5.00;;;;;;;4.55;100.00;95410.59;5013819;28;20948;-64
2021/01/28 07:27:14;;;;;;;5.80;5.17;;;;;;;4.52;100.00;95409.22;5014814;28;20472;-64
2021/01/28 07:29:45;;;;;;;7.20;4.80;;;;;;;4.56;100.00;95405.19;5015124;28;20170;-64
2021/01/28 07:32:30;;;;;;;6.27;4.93;;;;;;;4.43;100.00;95401.88;5014635;28;20442;-65
2021/01/28 07:35:35;;;;;;;5.63;4.40;;;;;;;4.64;100.00;95399.72;5003281;28;20486;-65
2021/01/28 07:38:32;;;;;;;5.83;4.70;;;;;;;4.53;100.00;95387.38;5014214;28;20943;-64
2021/01/28 07:40:59;;;;;;;3.97;3.63;;;;;;;4.54;100.00;95386.41;5012887;28;20412;-64
2021/01/28 07:43:46;;;;;;;3.90;3.50;;;;;;;4.62;100.00;95393.16;5013460;28;20414;-65
2021/01/28 07:46:14;;;;;;;5.33;4.17;;;;;;;4.63;100.00;95385.13;5014433;28;20802;-66
2021/01/28 07:48:41;;;;;;;4.47;4.07;;;;;;;4.60;100.00;95384.75;5014515;28;20447;-65
2021/01/28 07:51:28;;;;;;;4.40;3.17;;;;;;;4.44;100.00;95378.25;5014535;28;20553;-66
2021/01/28 07:53:54;;;;;;;5.27;3.80;;;;;;;4.53;100.00;95361.38;5013888;28;20908;-66
2021/01/28 07:56:38;;;;;;;4.53;3.47;;;;;;;4.82;100.00;95357.34;5009579;28;20417;-66
2021/01/28 07:59:09;;;;;;;3.83;3.03;;;;;;;4.67;100.00;95359.47;5013887;28;20184;-66
2021/01/28 08:01:37;;;;;;;4.93;4.17;;;;;;;4.70;100.00;95353.84;5014336;28;20500;-66
2021/01/28 08:04:06;;;;;;;4.30;3.70;;;;;;;4.76;100.00;95342.59;5013486;28;20454;-64
2021/01/28 08:06:37;;;;;;;6.57;3.63;;;;;;;4.98;100.00;95341.19;5014306;28;20407;-66
2021/01/28 08:09:14;;;;;;;4.17;3.70;;;;;;;5.05;100.00;95341.91;5014268;28;20762;-65
2021/01/28 08:11:40;;;;;;;5.20;3.20;;;;;;;5.05;100.00;95329.66;5013830;28;20520;-66
2021/01/28 08:14:11;;;;;;;6.10;3.03;;;;;;;4.87;100.00;95340.06;5013167;28;20541;-65
2021/01/28 08:16:38;;;;;;;2.90;2.67;;;;;;;5.02;100.00;95322.28;5013086;28;20394;-65
2021/01/28 08:19:13;;;;;;;4.37;3.60;;;;;;;5.06;100.00;95322.66;4994292;28;20439;-65
2021/01/28 08:21:39;;;;;;;3.10;2.80;;;;;;;5.20;100.00;95319.69;4994549;28;20411;-66
2021/01/28 08:24:16;;;;;;;4.10;2.80;;;;;;;5.13;100.00;95311.16;4993834;28;20432;-66
2021/01/28 08:26:42;;;;;;;2.30;2.17;;;;;;;4.97;100.00;95306.53;5007223;28;20178;-66
2021/01/28 08:29:12;;;;;;;2.37;2.17;;;;;;;4.94;100.00;95309.59;5013724;28;20406;-62
2021/01/28 08:31:39;;;;;;;14.53;8.60;;;;;;;5.03;100.00;95297.88;5012214;28;20421;-66
2021/01/28 08:34:11;;;;;;;2.70;2.50;;;;;;;5.13;100.00;95292.13;5013255;28;20436;-67
2021/01/28 08:36:42;;;;;;;3.33;2.27;;;;;;;5.20;100.00;95282.44;5013595;28;20513;-64
2021/01/28 08:39:11;;;;;;;2.70;2.47;;;;;;;5.20;100.00;95279.84;5013692;28;20493;-68
2021/01/28 08:41:37;;;;;;;4.07;3.67;;;;;;;5.12;100.00;95270.53;5013704;28;20486;-64
2021/01/28 08:44:07;;;;;;;1.67;1.57;;;;;;;5.20;100.00;95266.81;5013302;28;20443;-67
2021/01/28 08:46:34;;;;;;;3.60;2.60;;;;;;;5.32;100.00;95252.06;5012817;28;20429;-67
2021/01/28 08:49:19;;;;;;;2.43;2.23;;;;;;;5.42;100.00;95254.16;5013335;28;20758;-67
2021/01/28 08:51:54;;;;;;;2.10;1.70;;;;;;;5.38;100.00;95253.75;5014012;28;20417;-67
2021/01/28 08:54:24;;;;;;;1.70;1.60;;;;;;;5.50;100.00;95241.59;5013243;28;20827;-63
2021/01/28 08:56:55;;;;;;;2.40;2.00;;;;;;;5.53;100.00;95235.94;5013624;28;20435;-65
2021/01/28 08:59:24;;;;;;;1.90;1.80;;;;;;;5.35;100.00;95233.38;5013472;28;20482;-63
2021/01/28 09:01:52;;;;;;;2.30;1.73;;;;;;;5.31;100.00;95232.22;5004409;28;20428;-68
2021/01/28 09:04:29;;;;;;;1.60;1.47;;;;;;;5.35;100.00;95219.56;4993665;28;20422;-66
2021/01/28 09:06:55;;;;;;;2.93;1.70;;;;;;;5.35;100.00;95225.56;5006491;28;20417;-64
2021/01/28 09:09:24;;;;;;;1.93;1.50;;;;;;;5.43;100.00;95224.47;5013648;28;20410;-63
2021/01/28 09:11:52;;;;;;;1.90;1.50;;;;;;;5.45;100.00;95212.03;5013444;28;20177;-63
2021/01/28 09:14:27;;;;;;;1.90;1.77;;;;;;;5.24;100.00;95213.31;5012604;28;20434;-66
2021/01/28 09:17:00;;;;;;;2.00;1.90;;;;;;;5.38;100.00;95199.06;5013295;28;20443;-66
2021/01/28 09:19:29;;;;;;;2.17;1.97;;;;;;;5.40;100.00;95199.66;5011785;28;20427;-62
2021/01/28 09:21:59;;;;;;;1.73;1.63;;;;;;;5.44;100.00;95195.59;5002720;28;20436;-62
2021/01/28 09:24:47;;;;;;;2.50;2.30;;;;;;;5.50;100.00;95202.53;5003806;28;20438;-62
2021/01/28 09:27:34;;;;;;;2.27;2.10;;;;;;;5.36;100.00;95198.53;4998564;28;20417;-66
2021/01/28 09:30:15;;;;;;;2.13;1.93;;;;;;;5.56;100.00;95183.38;4992448;28;20413;-63
2021/01/28 09:32:40;;;;;;;1.73;1.63;;;;;;;5.66;100.00;95175.84;4993622;28;20401;-67
2021/01/28 09:35:14;;;;;;;1.90;1.77;;;;;;;5.76;100.00;95172.69;5009902;28;20461;-67
2021/01/28 09:37:46;;;;;;;2.00;1.90;;;;;;;5.69;100.00;95177.22;5013601;28;20276;-67
2021/01/28 09:40:29;;;;;;;2.30;1.83;;;;;;;5.61;100.00;95169.69;5013148;28;20407;-63
2021/01/28 09:43:30;;;;;;;2.00;1.73;;;;;;;5.63;100.00;95160.66;4995411;28;20403;-68
2021/01/28 09:46:04;;;;;;;1.67;1.50;;;;;;;5.66;100.00;95157.59;5002024;28;20782;-67
2021/01/28 09:48:30;;;;;;;1.70;1.43;;;;;;;5.63;100.00;95163.25;5015495;28;20422;-63
2021/01/28 09:50:56;;;;;;;1.30;1.30;;;;;;;5.52;100.00;95161.44;5016161;28;20850;-66
2021/01/28 09:53:21;;;;;;;2.53;2.33;;;;;;;5.58;100.00;95191.00;5016321;28;20169;-63
2021/01/28 09:55:48;;;;;;;2.17;1.40;;;;;;;5.46;100.00;95175.34;5016717;28;20675;-63
2021/01/28 09:58:13;;;;;;;2.20;2.10;;;;;;;5.80;100.00;95185.03;4999206;28;20543;-68
2021/01/28 10:00:39;;;;;;;1.97;1.77;;;;;;;5.77;100.00;95174.25;5016220;28;20434;-63
2021/01/28 10:03:06;;;;;;;1.27;1.17;;;;;;;5.74;100.00;95172.88;5016323;28;20172;-69
2021/01/28 10:05:33;;;;;;;1.60;1.50;;;;;;;5.65;100.00;95165.63;5012804;28;20467;-64
2021/01/28 10:08:00;;;;;;;1.20;1.17;;;;;;;5.64;100.00;95169.25;5016237;28;20407;-69
2021/01/28 10:10:28;;;;;;;0.90;0.90;;;;;;;5.72;100.00;95155.91;5016354;28;20399;-63
2021/01/28 10:12:57;;;;;;;1.10;1.10;;;;;;;5.77;100.00;95169.03;5016049;28;20408;-63
2021/01/28 10:15:26;;;;;;;1.57;1.47;;;;;;;5.79;100.00;95162.59;5015630;28;20431;-63
2021/01/28 10:17:52;;;;;;;2.67;1.50;;;;;;;5.69;100.00;95167.56;5016130;28;20492;-69
2021/01/28 10:20:19;;;;;;;2.10;1.60;;;;;;;5.83;100.00;95173.41;5013469;28;20425;-64
2021/01/28 10:22:46;;;;;;;1.97;1.47;;;;;;;5.76;100.00;95163.03;5016496;28;20408;-65
2021/01/28 10:25:13;;;;;;;2.10;1.90;;;;;;;5.57;100.00;95171.16;5011905;28;20528;-64
2021/01/28 10:27:38;;;;;;;2.40;1.60;;;;;;;5.56;100.00;95165.16;4996360;28;20401;-68
2021/01/28 10:30:06;;;;;;;2.40;1.50;;;;;;;5.59;100.00;95164.72;5012910;28;20420;-68
2021/01/28 10:32:32;;;;;;;1.60;1.50;;;;;;;5.52;100.00;95169.25;5012112;28;20173;-64
2021/01/28 10:34:58;;;;;;;2.83;1.90;;;;;;;5.66;100.00;95168.00;5010546;28;20435;-61
2021/01/28 10:37:23;;;;;;;1.50;1.40;;;;;;;5.63;100.00;95168.47;5011897;28;20200;-70
2021/01/28 10:39:49;;;;;;;1.70;1.60;;;;;;;5.84;100.00;95162.75;5010433;28;20431;-65
2021/01/28 10:42:18;;;;;;;2.43;2.23;;;;;;;5.86;100.00;95163.31;4999664;28;20289;-65
2021/01/28 10:44:44;;;;;;;1.60;1.50;;;;;;;5.74;100.00;95157.25;5009427;28;20204;-67
2021/01/28 10:47:10;;;;;;;1.83;1.57;;;;;;;5.73;100.00;95154.88;5012072;28;20514;-67
2021/01/28 10:49:35;;;;;;;2.00;1.90;;;;;;;5.79;100.00;95149.56;5012068;28;20505;-69
2021/01/28 10:52:01;;;;;;;1.80;1.70;;;;;;;5.94;100.00;95143.94;5011883;28;20195;-68
2021/01/28 10:54:26;;;;;;;2.03;1.80;;;;;;;5.90;100.00;95134.97;5009113;28;20349;-68
2021/01/28 10:56:53;;;;;;;1.73;1.63;;;;;;;5.88;100.00;95129.19;5010970;28;20179;-68
2021/01/28 10:59:18;;;;;;;1.77;1.60;;;;;;;5.89;100.00;95130.78;5010386;28;20934;-69
2021/01/28 11:01:44;;;;;;;2.90;1.57;;;;;;;5.83;100.00;95127.28;5004205;28;20448;-65
2021/01/28 11:04:09;;;;;;;1.30;1.20;;;;;;;5.79;100.00;95118.31;5003766;28;20204;-68
2021/01/28 11:06:34;;;;;;;2.57;1.57;;;;;;;5.92;100.00;95117.31;5010980;28;20598;-64
2021/01/28 11:09:00;;;;;;;1.30;1.20;;;;;;;5.96;100.00;95097.59;5011294;28;20169;-63
2021/01/28 11:11:25;;;;;;;1.20;1.20;;;;;;;6.03;100.00;95100.88;5011375;28;20200;-68
2021/01/28 11:13:54;;;;;;;1.80;1.70;;;;;;;6.06;100.00;95101.19;5011198;28;20173;-67
2021/01/28 11:16:23;;;;;;;2.07;1.93;;;;;;;6.11;100.00;95079.66;5005485;28;20257;-63
2021/01/28 11:18:50;;;;;;;1.70;1.60;;;;;;;6.33;100.00;95069.41;4991448;28;20490;-58
2021/01/28 11:21:15;;;;;;;1.60;1.50;;;;;;;6.32;100.00;95057.38;4996177;28;20435;-61
2021/01/28 11:23:41;;;;;;;1.50;1.40;;;;;;;6.54;100.00;95056.50;5006434;28;20421;-62
2021/01/28 11:26:06;;;;;;;1.90;1.70;;;;;;;6.43;100.00;95044.31;5007432;28;20217;-64
2021/01/28 11:28:32;;;;;;;1.60;1.50;;;;;;;6.36;100.00;95033.22;5011547;28;20219;-65
2021/01/28 11:30:57;;;;;;;1.33;1.30;;;;;;;6.41;100.00;95041.16;5010187;28;20650;-58
2021/01/28 11:33:23;;;;;;;1.70;1.60;;;;;;;6.53;100.00;95031.47;5010772;28;20215;-60
2021/01/28 11:35:48;;;;;;;1.33;1.23;;;;;;;6.76;100.00;95061.88;5010215;28;20201;-63
2021/01/28 11:38:13;;;;;;;2.17;1.60;;;;;;;6.72;100.00;95032.84;5011044;28;20740;-64
2021/01/28 11:40:39;;;;;;;1.47;1.37;;;;;;;6.60;100.00;95034.72;5011095;28;20179;-65
2021/01/28 11:43:06;;;;;;;1.20;1.20;;;;;;;6.72;100.00;95037.28;5012045;28;20665;-65
2021/01/28 11:45:34;;;;;;;1.77;1.67;;;;;;;6.79;100.00;95028.28;5014336;28;20203;-69
2021/01/28 11:48:00;;;;;;;1.80;1.60;;;;;;;6.73;100.00;95029.22;5014642;28;20476;-62
2021/01/28 11:50:26;;;;;;;1.07;1.07;;;;;;;6.78;100.00;95031.91;5012726;28;20884;-65
2021/01/28 11:52:51;;;;;;;2.97;1.50;;;;;;;6.85;100.00;95032.53;5013884;28;20207;-66